sensor_id;sensor_type;location;lat;lon;timestamp;temperature;humidity
68450;SHT30;55434;39.570;2.652;2022-10-16T00:01:20;20.28;80.51
68450;SHT30;55434;39.570;2.652;2022-10-16T00:03:47;20.30;80.52
68450;SHT30;55434;39.570;2.652;2022-10-16T00:06:13;20.23;80.71
68450;SHT30;55434;39.570;2.652;2022-10-16T00:08:40;20.20;80.82
68450;SHT30;55434;39.570;2.652;2022-10-16T00:11:08;20.19;80.99
68450;SHT30;55434;39.570;2.652;2022-10-16T00:13:35;20.16;81.00
68450;SHT30;55434;39.570;2.652;2022-10-16T00:16:02;20.19;80.86
68450;SHT30;55434;39.570;2.652;2022-10-16T00:18:29;20.26;80.55
68450;SHT30;55434;39.570;2.652;2022-10-16T00:23:50;20.25;79.85
68450;SHT30;55434;39.570;2.652;2022-10-16T00:26:17;20.25;80.00
68450;SHT30;55434;39.570;2.652;2022-10-16T00:28:49;20.30;80.04
68450;SHT30;55434;39.570;2.652;2022-10-16T00:31:15;20.34;79.93
68450;SHT30;55434;39.570;2.652;2022-10-16T00:33:41;20.34;80.00
68450;SHT30;55434;39.570;2.652;2022-10-16T00:36:10;20.28;80.08
68450;SHT30;55434;39.570;2.652;2022-10-16T00:38:36;20.32;80.30
68450;SHT30;55434;39.570;2.652;2022-10-16T00:41:03;20.33;80.61
68450;SHT30;55434;39.570;2.652;2022-10-16T00:49:15;20.42;80.20
68450;SHT30;55434;39.570;2.652;2022-10-16T00:51:47;20.44;80.10
68450;SHT30;55434;39.570;2.652;2022-10-16T00:54:26;20.56;79.70
68450;SHT30;55434;39.570;2.652;2022-10-16T00:56:57;20.76;78.87
68450;SHT30;55434;39.570;2.652;2022-10-16T00:59:29;20.67;78.73
68450;SHT30;55434;39.570;2.652;2022-10-16T01:01:55;20.71;78.72
68450;SHT30;55434;39.570;2.652;2022-10-16T01:04:23;20.64;78.51
68450;SHT30;55434;39.570;2.652;2022-10-16T01:12:03;20.56;78.37
68450;SHT30;55434;39.570;2.652;2022-10-16T01:17:48;20.59;78.65
68450;SHT30;55434;39.570;2.652;2022-10-16T01:20:22;20.53;79.40
68450;SHT30;55434;39.570;2.652;2022-10-16T01:28:22;20.42;80.18
68450;SHT30;55434;39.570;2.652;2022-10-16T01:30:51;20.28;81.16
68450;SHT30;55434;39.570;2.652;2022-10-16T01:33:28;20.09;83.20
68450;SHT30;55434;39.570;2.652;2022-10-16T01:35:59;19.93;83.17
68450;SHT30;55434;39.570;2.652;2022-10-16T01:38:38;19.91;83.68
68450;SHT30;55434;39.570;2.652;2022-10-16T01:41:17;19.99;84.71
68450;SHT30;55434;39.570;2.652;2022-10-16T01:43:48;20.10;84.63
68450;SHT30;55434;39.570;2.652;2022-10-16T01:46:17;20.08;84.36
68450;SHT30;55434;39.570;2.652;2022-10-16T01:48:44;20.05;84.21
68450;SHT30;55434;39.570;2.652;2022-10-16T01:51:12;20.06;83.19
68450;SHT30;55434;39.570;2.652;2022-10-16T01:53:40;20.10;83.01
68450;SHT30;55434;39.570;2.652;2022-10-16T01:56:09;20.18;83.07
68450;SHT30;55434;39.570;2.652;2022-10-16T01:58:44;20.22;83.42
68450;SHT30;55434;39.570;2.652;2022-10-16T02:01:13;20.22;82.85
68450;SHT30;55434;39.570;2.652;2022-10-16T02:03:43;20.16;82.76
68450;SHT30;55434;39.570;2.652;2022-10-16T02:06:09;20.16;82.11
68450;SHT30;55434;39.570;2.652;2022-10-16T02:08:35;20.15;82.45
68450;SHT30;55434;39.570;2.652;2022-10-16T02:11:02;20.16;81.91
68450;SHT30;55434;39.570;2.652;2022-10-16T02:13:53;20.18;82.09
68450;SHT30;55434;39.570;2.652;2022-10-16T02:16:20;20.20;82.60
68450;SHT30;55434;39.570;2.652;2022-10-16T02:18:46;20.15;83.31
68450;SHT30;55434;39.570;2.652;2022-10-16T02:21:25;20.08;83.75
68450;SHT30;55434;39.570;2.652;2022-10-16T02:24:29;20.09;83.96
68450;SHT30;55434;39.570;2.652;2022-10-16T02:27:10;20.02;84.20
68450;SHT30;55434;39.570;2.652;2022-10-16T02:29:42;19.98;84.36
68450;SHT30;55434;39.570;2.652;2022-10-16T02:32:17;19.96;84.57
68450;SHT30;55434;39.570;2.652;2022-10-16T02:34:45;19.93;84.83
68450;SHT30;55434;39.570;2.652;2022-10-16T02:37:14;19.92;85.02
68450;SHT30;55434;39.570;2.652;2022-10-16T02:39:41;20.04;85.04
68450;SHT30;55434;39.570;2.652;2022-10-16T02:42:12;19.93;84.84
68450;SHT30;55434;39.570;2.652;2022-10-16T02:44:38;19.85;84.72
68450;SHT30;55434;39.570;2.652;2022-10-16T02:47:04;19.82;84.76
68450;SHT30;55434;39.570;2.652;2022-10-16T02:49:29;19.78;84.57
68450;SHT30;55434;39.570;2.652;2022-10-16T02:51:57;19.75;84.49
68450;SHT30;55434;39.570;2.652;2022-10-16T02:54:23;19.79;84.40
68450;SHT30;55434;39.570;2.652;2022-10-16T02:56:49;19.78;84.42
68450;SHT30;55434;39.570;2.652;2022-10-16T02:59:15;19.86;84.34
68450;SHT30;55434;39.570;2.652;2022-10-16T03:01:41;19.89;84.41
68450;SHT30;55434;39.570;2.652;2022-10-16T03:04:07;19.78;83.69
68450;SHT30;55434;39.570;2.652;2022-10-16T03:06:32;19.78;83.85
68450;SHT30;55434;39.570;2.652;2022-10-16T03:08:58;19.78;83.17
68450;SHT30;55434;39.570;2.652;2022-10-16T03:11:23;19.86;83.44
68450;SHT30;55434;39.570;2.652;2022-10-16T03:13:49;19.83;82.97
68450;SHT30;55434;39.570;2.652;2022-10-16T03:16:15;19.85;82.49
68450;SHT30;55434;39.570;2.652;2022-10-16T03:18:43;19.83;82.14
68450;SHT30;55434;39.570;2.652;2022-10-16T03:21:16;19.91;82.47
68450;SHT30;55434;39.570;2.652;2022-10-16T03:23:42;19.86;82.06
68450;SHT30;55434;39.570;2.652;2022-10-16T03:26:07;19.95;82.24
68450;SHT30;55434;39.570;2.652;2022-10-16T03:28:33;19.92;82.41
68450;SHT30;55434;39.570;2.652;2022-10-16T03:30:59;19.86;82.06
68450;SHT30;55434;39.570;2.652;2022-10-16T03:33:24;19.88;81.86
68450;SHT30;55434;39.570;2.652;2022-10-16T03:35:54;19.91;82.08
68450;SHT30;55434;39.570;2.652;2022-10-16T03:38:20;19.89;82.19
68450;SHT30;55434;39.570;2.652;2022-10-16T03:40:46;19.91;82.30
68450;SHT30;55434;39.570;2.652;2022-10-16T03:43:11;19.89;82.49
68450;SHT30;55434;39.570;2.652;2022-10-16T03:45:40;19.86;82.67
68450;SHT30;55434;39.570;2.652;2022-10-16T03:48:06;19.85;82.91
68450;SHT30;55434;39.570;2.652;2022-10-16T03:50:31;19.82;83.07
68450;SHT30;55434;39.570;2.652;2022-10-16T03:52:57;19.83;83.21
68450;SHT30;55434;39.570;2.652;2022-10-16T03:55:23;19.75;83.39
68450;SHT30;55434;39.570;2.652;2022-10-16T03:57:48;19.77;83.71
68450;SHT30;55434;39.570;2.652;2022-10-16T04:00:14;19.72;83.84
68450;SHT30;55434;39.570;2.652;2022-10-16T04:02:40;19.79;83.77
68450;SHT30;55434;39.570;2.652;2022-10-16T04:05:06;19.71;83.98
68450;SHT30;55434;39.570;2.652;2022-10-16T04:07:32;19.71;84.16
68450;SHT30;55434;39.570;2.652;2022-10-16T04:09:58;19.74;84.27
68450;SHT30;55434;39.570;2.652;2022-10-16T04:12:25;19.72;84.31
68450;SHT30;55434;39.570;2.652;2022-10-16T04:14:51;19.77;84.31
68450;SHT30;55434;39.570;2.652;2022-10-16T04:17:16;19.77;84.40
68450;SHT30;55434;39.570;2.652;2022-10-16T04:19:42;19.77;84.41
68450;SHT30;55434;39.570;2.652;2022-10-16T04:22:11;19.74;84.59
68450;SHT30;55434;39.570;2.652;2022-10-16T04:24:37;19.74;84.68
68450;SHT30;55434;39.570;2.652;2022-10-16T04:27:02;19.69;84.79
68450;SHT30;55434;39.570;2.652;2022-10-16T04:29:28;19.75;84.77
68450;SHT30;55434;39.570;2.652;2022-10-16T04:31:54;19.77;84.71
68450;SHT30;55434;39.570;2.652;2022-10-16T04:34:20;19.75;84.77
68450;SHT30;55434;39.570;2.652;2022-10-16T04:36:48;19.75;84.65
68450;SHT30;55434;39.570;2.652;2022-10-16T04:39:15;19.77;84.64
68450;SHT30;55434;39.570;2.652;2022-10-16T04:41:40;19.78;84.45
68450;SHT30;55434;39.570;2.652;2022-10-16T04:44:09;19.81;84.39
68450;SHT30;55434;39.570;2.652;2022-10-16T04:46:35;19.82;84.28
68450;SHT30;55434;39.570;2.652;2022-10-16T04:49:00;19.81;84.17
68450;SHT30;55434;39.570;2.652;2022-10-16T04:51:26;19.82;84.19
68450;SHT30;55434;39.570;2.652;2022-10-16T04:53:53;19.88;83.99
68450;SHT30;55434;39.570;2.652;2022-10-16T04:56:20;19.91;83.86
68450;SHT30;55434;39.570;2.652;2022-10-16T04:58:47;19.92;83.71
68450;SHT30;55434;39.570;2.652;2022-10-16T05:01:12;19.92;83.80
68450;SHT30;55434;39.570;2.652;2022-10-16T05:03:39;19.92;83.85
68450;SHT30;55434;39.570;2.652;2022-10-16T05:06:06;19.92;83.84
68450;SHT30;55434;39.570;2.652;2022-10-16T05:08:32;19.93;83.81
68450;SHT30;55434;39.570;2.652;2022-10-16T05:10:58;19.96;83.60
68450;SHT30;55434;39.570;2.652;2022-10-16T05:13:24;19.98;83.48
68450;SHT30;55434;39.570;2.652;2022-10-16T05:15:49;19.98;83.47
68450;SHT30;55434;39.570;2.652;2022-10-16T05:18:16;19.98;83.55
68450;SHT30;55434;39.570;2.652;2022-10-16T05:20:42;19.99;83.61
68450;SHT30;55434;39.570;2.652;2022-10-16T05:23:10;19.98;83.66
68450;SHT30;55434;39.570;2.652;2022-10-16T05:25:37;19.93;83.65
68450;SHT30;55434;39.570;2.652;2022-10-16T05:28:03;19.92;83.85
68450;SHT30;55434;39.570;2.652;2022-10-16T05:30:29;19.92;83.94
68450;SHT30;55434;39.570;2.652;2022-10-16T05:32:54;19.86;84.22
68450;SHT30;55434;39.570;2.652;2022-10-16T05:35:21;19.81;84.41
68450;SHT30;55434;39.570;2.652;2022-10-16T05:37:50;19.77;84.52
68450;SHT30;55434;39.570;2.652;2022-10-16T05:40:15;19.77;84.58
68450;SHT30;55434;39.570;2.652;2022-10-16T05:42:42;19.77;84.57
68450;SHT30;55434;39.570;2.652;2022-10-16T05:45:09;19.75;84.56
68450;SHT30;55434;39.570;2.652;2022-10-16T05:47:35;19.71;84.71
68450;SHT30;55434;39.570;2.652;2022-10-16T05:50:02;19.74;84.69
68450;SHT30;55434;39.570;2.652;2022-10-16T05:52:29;19.72;84.72
68450;SHT30;55434;39.570;2.652;2022-10-16T05:54:55;19.69;84.81
68450;SHT30;55434;39.570;2.652;2022-10-16T05:57:20;19.68;84.98
68450;SHT30;55434;39.570;2.652;2022-10-16T05:59:46;19.68;85.06
68450;SHT30;55434;39.570;2.652;2022-10-16T06:02:13;19.65;85.07
68450;SHT30;55434;39.570;2.652;2022-10-16T06:04:39;19.68;85.09
68450;SHT30;55434;39.570;2.652;2022-10-16T06:07:04;19.67;85.05
68450;SHT30;55434;39.570;2.652;2022-10-16T06:09:30;19.69;85.03
68450;SHT30;55434;39.570;2.652;2022-10-16T06:11:59;19.74;84.99
68450;SHT30;55434;39.570;2.652;2022-10-16T06:14:24;19.72;84.95
68450;SHT30;55434;39.570;2.652;2022-10-16T06:16:53;19.74;84.97
68450;SHT30;55434;39.570;2.652;2022-10-16T06:19:19;19.75;84.98
68450;SHT30;55434;39.570;2.652;2022-10-16T06:21:44;19.77;84.93
68450;SHT30;55434;39.570;2.652;2022-10-16T06:24:10;19.82;84.88
68450;SHT30;55434;39.570;2.652;2022-10-16T06:26:37;19.83;84.87
68450;SHT30;55434;39.570;2.652;2022-10-16T06:29:03;19.86;84.77
68450;SHT30;55434;39.570;2.652;2022-10-16T06:31:29;19.91;84.66
68450;SHT30;55434;39.570;2.652;2022-10-16T06:33:57;19.93;84.50
68450;SHT30;55434;39.570;2.652;2022-10-16T06:36:26;19.96;84.56
68450;SHT30;55434;39.570;2.652;2022-10-16T06:38:54;19.98;84.47
68450;SHT30;55434;39.570;2.652;2022-10-16T06:41:21;19.96;84.56
68450;SHT30;55434;39.570;2.652;2022-10-16T06:43:48;20.04;84.44
68450;SHT30;55434;39.570;2.652;2022-10-16T06:46:17;20.08;84.31
68450;SHT30;55434;39.570;2.652;2022-10-16T06:48:46;20.16;84.10
68450;SHT30;55434;39.570;2.652;2022-10-16T06:51:14;20.23;83.93
68450;SHT30;55434;39.570;2.652;2022-10-16T06:53:42;20.26;83.81
68450;SHT30;55434;39.570;2.652;2022-10-16T06:56:15;20.33;83.68
68450;SHT30;55434;39.570;2.652;2022-10-16T06:58:42;20.36;83.64
68450;SHT30;55434;39.570;2.652;2022-10-16T07:01:09;20.43;83.50
68450;SHT30;55434;39.570;2.652;2022-10-16T07:03:39;20.49;83.19
68450;SHT30;55434;39.570;2.652;2022-10-16T07:06:09;20.54;83.04
68450;SHT30;55434;39.570;2.652;2022-10-16T07:08:38;20.61;82.89
68450;SHT30;55434;39.570;2.652;2022-10-16T07:11:07;20.66;82.74
68450;SHT30;55434;39.570;2.652;2022-10-16T07:13:34;20.71;82.75
68450;SHT30;55434;39.570;2.652;2022-10-16T07:16:09;20.74;82.73
68450;SHT30;55434;39.570;2.652;2022-10-16T07:18:36;20.79;82.64
68450;SHT30;55434;39.570;2.652;2022-10-16T07:21:07;20.88;82.50
68450;SHT30;55434;39.570;2.652;2022-10-16T07:23:33;20.81;82.67
68450;SHT30;55434;39.570;2.652;2022-10-16T07:26:01;20.84;82.82
68450;SHT30;55434;39.570;2.652;2022-10-16T07:28:30;20.87;82.72
68450;SHT30;55434;39.570;2.652;2022-10-16T07:31:05;20.90;82.69
68450;SHT30;55434;39.570;2.652;2022-10-16T07:33:32;20.93;82.65
68450;SHT30;55434;39.570;2.652;2022-10-16T07:35:59;21.00;82.51
68450;SHT30;55434;39.570;2.652;2022-10-16T07:38:25;21.08;82.35
68450;SHT30;55434;39.570;2.652;2022-10-16T07:41:03;21.15;82.24
68450;SHT30;55434;39.570;2.652;2022-10-16T07:43:29;21.25;82.08
68450;SHT30;55434;39.570;2.652;2022-10-16T07:45:55;21.25;81.99
68450;SHT30;55434;39.570;2.652;2022-10-16T07:48:21;21.30;82.13
68450;SHT30;55434;39.570;2.652;2022-10-16T07:50:47;21.38;81.85
68450;SHT30;55434;39.570;2.652;2022-10-16T07:53:13;21.46;81.57
68450;SHT30;55434;39.570;2.652;2022-10-16T07:55:39;21.52;81.56
68450;SHT30;55434;39.570;2.652;2022-10-16T07:58:05;21.56;81.42
68450;SHT30;55434;39.570;2.652;2022-10-16T08:00:31;21.61;81.37
68450;SHT30;55434;39.570;2.652;2022-10-16T08:02:58;21.67;81.14
68450;SHT30;55434;39.570;2.652;2022-10-16T08:05:31;21.72;81.03
68450;SHT30;55434;39.570;2.652;2022-10-16T08:07:58;21.75;80.97
68450;SHT30;55434;39.570;2.652;2022-10-16T08:10:25;21.79;80.75
68450;SHT30;55434;39.570;2.652;2022-10-16T08:12:52;21.85;80.58
68450;SHT30;55434;39.570;2.652;2022-10-16T08:15:18;21.95;80.29
68450;SHT30;55434;39.570;2.652;2022-10-16T08:17:53;22.03;79.61
68450;SHT30;55434;39.570;2.652;2022-10-16T08:20:19;22.14;78.99
68450;SHT30;55434;39.570;2.652;2022-10-16T08:22:44;22.20;78.89
68450;SHT30;55434;39.570;2.652;2022-10-16T08:25:10;22.33;78.75
68450;SHT30;55434;39.570;2.652;2022-10-16T08:27:36;22.43;78.16
68450;SHT30;55434;39.570;2.652;2022-10-16T08:30:01;22.51;78.16
68450;SHT30;55434;39.570;2.652;2022-10-16T08:32:27;22.58;78.21
68450;SHT30;55434;39.570;2.652;2022-10-16T08:34:53;22.63;78.34
68450;SHT30;55434;39.570;2.652;2022-10-16T08:37:29;22.67;78.19
68450;SHT30;55434;39.570;2.652;2022-10-16T08:40:21;22.77;78.28
68450;SHT30;55434;39.570;2.652;2022-10-16T08:48:53;23.01;77.83
68450;SHT30;55434;39.570;2.652;2022-10-16T08:51:26;23.09;77.49
68450;SHT30;55434;39.570;2.652;2022-10-16T08:56:43;23.36;77.15
68450;SHT30;55434;39.570;2.652;2022-10-16T08:59:15;23.56;76.51
68450;SHT30;55434;39.570;2.652;2022-10-16T09:01:49;23.63;76.56
68450;SHT30;55434;39.570;2.652;2022-10-16T09:20:34;24.41;75.45
68450;SHT30;55434;39.570;2.652;2022-10-16T09:25:30;24.68;74.76
68450;SHT30;55434;39.570;2.652;2022-10-16T09:27:56;24.86;74.53
68450;SHT30;55434;39.570;2.652;2022-10-16T09:30:22;25.00;74.45
68450;SHT30;55434;39.570;2.652;2022-10-16T09:32:52;25.06;73.90
68450;SHT30;55434;39.570;2.652;2022-10-16T09:35:43;25.18;72.75
68450;SHT30;55434;39.570;2.652;2022-10-16T09:38:33;25.33;72.71
68450;SHT30;55434;39.570;2.652;2022-10-16T09:41:16;25.44;72.77
68450;SHT30;55434;39.570;2.652;2022-10-16T09:46:35;25.63;72.26
68450;SHT30;55434;39.570;2.652;2022-10-16T09:49:36;25.71;71.88
68450;SHT30;55434;39.570;2.652;2022-10-16T09:52:04;25.88;71.43
68450;SHT30;55434;39.570;2.652;2022-10-16T09:54:33;25.98;71.18
68450;SHT30;55434;39.570;2.652;2022-10-16T09:57:07;25.94;71.05
68450;SHT30;55434;39.570;2.652;2022-10-16T09:59:33;26.17;70.59
68450;SHT30;55434;39.570;2.652;2022-10-16T10:02:03;27.65;65.94
68450;SHT30;55434;39.570;2.652;2022-10-16T10:04:39;29.10;61.95
68450;SHT30;55434;39.570;2.652;2022-10-16T10:07:17;29.90;58.69
68450;SHT30;55434;39.570;2.652;2022-10-16T10:09:44;30.48;56.10
68450;SHT30;55434;39.570;2.652;2022-10-16T10:12:30;31.12;53.14
68450;SHT30;55434;39.570;2.652;2022-10-16T10:15:11;31.29;52.00
68450;SHT30;55434;39.570;2.652;2022-10-16T10:18:19;31.38;53.57
68450;SHT30;55434;39.570;2.652;2022-10-16T10:20:57;31.36;53.97
68450;SHT30;55434;39.570;2.652;2022-10-16T10:23:26;31.73;53.71
68450;SHT30;55434;39.570;2.652;2022-10-16T10:31:27;31.92;53.31
68450;SHT30;55434;39.570;2.652;2022-10-16T10:39:59;31.39;53.79
68450;SHT30;55434;39.570;2.652;2022-10-16T10:42:38;31.87;52.63
68450;SHT30;55434;39.570;2.652;2022-10-16T10:45:22;31.94;52.39
68450;SHT30;55434;39.570;2.652;2022-10-16T10:50:41;31.08;53.74
68450;SHT30;55434;39.570;2.652;2022-10-16T10:53:33;31.86;51.33
68450;SHT30;55434;39.570;2.652;2022-10-16T10:59:19;31.61;51.70
68450;SHT30;55434;39.570;2.652;2022-10-16T11:01:55;32.03;50.69
68450;SHT30;55434;39.570;2.652;2022-10-16T11:04:37;32.10;50.59
68450;SHT30;55434;39.570;2.652;2022-10-16T11:07:17;32.55;49.04
68450;SHT30;55434;39.570;2.652;2022-10-16T11:09:56;32.77;49.07
68450;SHT30;55434;39.570;2.652;2022-10-16T11:12:33;33.12;48.48
68450;SHT30;55434;39.570;2.652;2022-10-16T11:15:39;33.06;48.22
68450;SHT30;55434;39.570;2.652;2022-10-16T11:20:37;32.06;49.39
68450;SHT30;55434;39.570;2.652;2022-10-16T11:23:23;31.77;50.26
68450;SHT30;55434;39.570;2.652;2022-10-16T11:25:50;32.23;49.86
68450;SHT30;55434;39.570;2.652;2022-10-16T11:31:00;32.67;48.57
68450;SHT30;55434;39.570;2.652;2022-10-16T11:33:45;32.82;49.09
68450;SHT30;55434;39.570;2.652;2022-10-16T11:39:08;32.98;50.05
68450;SHT30;55434;39.570;2.652;2022-10-16T11:44:36;32.31;50.76
68450;SHT30;55434;39.570;2.652;2022-10-16T11:50:04;32.57;51.86
68450;SHT30;55434;39.570;2.652;2022-10-16T11:55:41;33.85;47.75
68450;SHT30;55434;39.570;2.652;2022-10-16T12:01:26;34.87;43.65
68450;SHT30;55434;39.570;2.652;2022-10-16T12:04:14;34.71;43.55
68450;SHT30;55434;39.570;2.652;2022-10-16T12:07:03;33.97;47.28
68450;SHT30;55434;39.570;2.652;2022-10-16T12:09:39;33.59;46.76
68450;SHT30;55434;39.570;2.652;2022-10-16T12:15:19;34.57;44.74
68450;SHT30;55434;39.570;2.652;2022-10-16T12:17:45;34.52;45.56
68450;SHT30;55434;39.570;2.652;2022-10-16T12:22:41;34.43;46.26
68450;SHT30;55434;39.570;2.652;2022-10-16T12:25:39;34.55;43.33
68450;SHT30;55434;39.570;2.652;2022-10-16T12:30:51;34.52;43.89
68450;SHT30;55434;39.570;2.652;2022-10-16T12:33:28;34.82;43.36
68450;SHT30;55434;39.570;2.652;2022-10-16T12:35:55;34.44;44.89
68450;SHT30;55434;39.570;2.652;2022-10-16T12:38:28;33.52;47.51
68450;SHT30;55434;39.570;2.652;2022-10-16T12:41:03;33.01;49.50
68450;SHT30;55434;39.570;2.652;2022-10-16T12:43:41;32.30;52.45
68450;SHT30;55434;39.570;2.652;2022-10-16T12:48:33;31.45;55.76
68450;SHT30;55434;39.570;2.652;2022-10-16T12:51:19;31.04;57.41
68450;SHT30;55434;39.570;2.652;2022-10-16T13:11:26;30.98;57.33
68450;SHT30;55434;39.570;2.652;2022-10-16T13:28:21;29.99;60.62
68450;SHT30;55434;39.570;2.652;2022-10-16T13:30:55;29.86;61.07
68450;SHT30;55434;39.570;2.652;2022-10-16T13:33:39;29.58;61.75
68450;SHT30;55434;39.570;2.652;2022-10-16T13:36:05;29.42;62.00
68450;SHT30;55434;39.570;2.652;2022-10-16T13:38:35;29.10;63.72
68450;SHT30;55434;39.570;2.652;2022-10-16T13:41:16;29.48;62.95
68450;SHT30;55434;39.570;2.652;2022-10-16T13:43:56;29.76;61.64
68450;SHT30;55434;39.570;2.652;2022-10-16T13:46:23;30.23;60.85
68450;SHT30;55434;39.570;2.652;2022-10-16T13:49:04;30.44;59.80
68450;SHT30;55434;39.570;2.652;2022-10-16T13:51:34;30.84;59.22
68450;SHT30;55434;39.570;2.652;2022-10-16T13:53:59;30.78;59.35
68450;SHT30;55434;39.570;2.652;2022-10-16T13:56:28;30.64;59.98
68450;SHT30;55434;39.570;2.652;2022-10-16T14:01:53;30.43;60.61
68450;SHT30;55434;39.570;2.652;2022-10-16T14:04:23;29.92;61.94
68450;SHT30;55434;39.570;2.652;2022-10-16T14:06:51;30.05;61.33
68450;SHT30;55434;39.570;2.652;2022-10-16T14:09:26;30.08;61.63
68450;SHT30;55434;39.570;2.652;2022-10-16T14:11:56;30.08;61.57
68450;SHT30;55434;39.570;2.652;2022-10-16T14:14:23;30.19;61.37
68450;SHT30;55434;39.570;2.652;2022-10-16T14:16:50;30.03;61.85
68450;SHT30;55434;39.570;2.652;2022-10-16T14:19:22;30.02;61.87
68450;SHT30;55434;39.570;2.652;2022-10-16T14:21:56;30.13;61.52
68450;SHT30;55434;39.570;2.652;2022-10-16T14:26:53;29.27;63.85
68450;SHT30;55434;39.570;2.652;2022-10-16T14:29:22;29.58;63.31
68450;SHT30;55434;39.570;2.652;2022-10-16T14:32:22;29.52;63.14
68450;SHT30;55434;39.570;2.652;2022-10-16T14:34:53;28.94;65.14
68450;SHT30;55434;39.570;2.652;2022-10-16T14:37:27;28.67;66.07
68450;SHT30;55434;39.570;2.652;2022-10-16T14:39:57;28.97;65.48
68450;SHT30;55434;39.570;2.652;2022-10-16T14:42:24;29.07;65.10
68450;SHT30;55434;39.570;2.652;2022-10-16T14:44:51;28.61;66.36
68450;SHT30;55434;39.570;2.652;2022-10-16T14:47:25;28.73;66.11
68450;SHT30;55434;39.570;2.652;2022-10-16T14:49:52;28.87;65.74
68450;SHT30;55434;39.570;2.652;2022-10-16T14:52:20;29.27;64.66
68450;SHT30;55434;39.570;2.652;2022-10-16T14:54:49;29.15;64.77
68450;SHT30;55434;39.570;2.652;2022-10-16T14:57:27;28.84;65.58
68450;SHT30;55434;39.570;2.652;2022-10-16T14:59:54;28.87;65.92
68450;SHT30;55434;39.570;2.652;2022-10-16T15:02:35;28.26;67.46
68450;SHT30;55434;39.570;2.652;2022-10-16T15:05:16;28.16;67.85
68450;SHT30;55434;39.570;2.652;2022-10-16T15:07:45;28.23;67.47
68450;SHT30;55434;39.570;2.652;2022-10-16T15:10:12;28.49;66.64
68450;SHT30;55434;39.570;2.652;2022-10-16T15:12:39;28.73;66.06
68450;SHT30;55434;39.570;2.652;2022-10-16T15:15:21;28.36;66.78
68450;SHT30;55434;39.570;2.652;2022-10-16T15:17:55;28.38;67.12
68450;SHT30;55434;39.570;2.652;2022-10-16T15:20:25;28.46;66.68
68450;SHT30;55434;39.570;2.652;2022-10-16T15:22:53;28.73;65.90
68450;SHT30;55434;39.570;2.652;2022-10-16T15:25:38;28.76;65.77
68450;SHT30;55434;39.570;2.652;2022-10-16T15:28:08;28.74;65.72
68450;SHT30;55434;39.570;2.652;2022-10-16T15:30:35;28.42;66.60
68450;SHT30;55434;39.570;2.652;2022-10-16T15:33:02;28.57;66.86
68450;SHT30;55434;39.570;2.652;2022-10-16T15:35:28;28.55;66.81
68450;SHT30;55434;39.570;2.652;2022-10-16T15:37:54;28.59;66.75
68450;SHT30;55434;39.570;2.652;2022-10-16T15:40:21;28.23;67.92
68450;SHT30;55434;39.570;2.652;2022-10-16T15:42:56;28.31;67.90
68450;SHT30;55434;39.570;2.652;2022-10-16T15:45:25;28.29;67.76
68450;SHT30;55434;39.570;2.652;2022-10-16T15:47:55;27.78;68.92
68450;SHT30;55434;39.570;2.652;2022-10-16T15:50:24;27.65;69.83
68450;SHT30;55434;39.570;2.652;2022-10-16T15:52:53;27.44;70.76
68450;SHT30;55434;39.570;2.652;2022-10-16T15:55:18;27.38;70.54
68450;SHT30;55434;39.570;2.652;2022-10-16T15:57:46;27.51;70.59
68450;SHT30;55434;39.570;2.652;2022-10-16T16:00:16;27.89;69.18
68450;SHT30;55434;39.570;2.652;2022-10-16T16:02:43;28.01;68.95
68450;SHT30;55434;39.570;2.652;2022-10-16T16:05:10;27.92;69.38
68450;SHT30;55434;39.570;2.652;2022-10-16T16:07:39;27.81;69.32
68450;SHT30;55434;39.570;2.652;2022-10-16T16:10:07;27.81;69.60
68450;SHT30;55434;39.570;2.652;2022-10-16T16:12:34;27.69;69.90
68450;SHT30;55434;39.570;2.652;2022-10-16T16:15:00;27.55;70.29
68450;SHT30;55434;39.570;2.652;2022-10-16T16:17:25;27.10;71.66
68450;SHT30;55434;39.570;2.652;2022-10-16T16:19:51;26.71;73.08
68450;SHT30;55434;39.570;2.652;2022-10-16T16:22:17;26.39;73.95
68450;SHT30;55434;39.570;2.652;2022-10-16T16:24:43;25.93;75.93
68450;SHT30;55434;39.570;2.652;2022-10-16T16:27:09;25.74;76.61
68450;SHT30;55434;39.570;2.652;2022-10-16T16:29:35;25.36;77.85
68450;SHT30;55434;39.570;2.652;2022-10-16T16:32:01;25.27;78.24
68450;SHT30;55434;39.570;2.652;2022-10-16T16:34:27;25.15;78.86
68450;SHT30;55434;39.570;2.652;2022-10-16T16:36:56;24.96;79.77
68450;SHT30;55434;39.570;2.652;2022-10-16T16:39:28;24.79;80.27
68450;SHT30;55434;39.570;2.652;2022-10-16T16:41:58;24.69;80.77
68450;SHT30;55434;39.570;2.652;2022-10-16T16:44:27;24.58;81.40
68450;SHT30;55434;39.570;2.652;2022-10-16T16:47:04;24.48;81.70
68450;SHT30;55434;39.570;2.652;2022-10-16T16:49:31;24.45;81.82
68450;SHT30;55434;39.570;2.652;2022-10-16T16:51:56;24.41;82.06
68450;SHT30;55434;39.570;2.652;2022-10-16T16:54:22;24.32;82.58
68450;SHT30;55434;39.570;2.652;2022-10-16T16:56:51;24.28;82.57
68450;SHT30;55434;39.570;2.652;2022-10-16T16:59:19;24.25;82.68
68450;SHT30;55434;39.570;2.652;2022-10-16T17:01:48;24.25;82.72
68450;SHT30;55434;39.570;2.652;2022-10-16T17:04:14;24.24;82.79
68450;SHT30;55434;39.570;2.652;2022-10-16T17:06:44;24.18;82.91
68450;SHT30;55434;39.570;2.652;2022-10-16T17:09:13;24.20;82.84
68450;SHT30;55434;39.570;2.652;2022-10-16T17:11:44;24.18;82.86
68450;SHT30;55434;39.570;2.652;2022-10-16T17:14:14;24.17;82.66
68450;SHT30;55434;39.570;2.652;2022-10-16T17:16:40;24.20;82.55
68450;SHT30;55434;39.570;2.652;2022-10-16T17:19:17;24.20;82.07
68450;SHT30;55434;39.570;2.652;2022-10-16T17:21:43;24.22;82.07
68450;SHT30;55434;39.570;2.652;2022-10-16T17:24:09;24.28;81.76
68450;SHT30;55434;39.570;2.652;2022-10-16T17:26:39;24.24;81.56
68450;SHT30;55434;39.570;2.652;2022-10-16T17:29:11;24.25;81.71
68450;SHT30;55434;39.570;2.652;2022-10-16T17:31:37;24.25;81.21
68450;SHT30;55434;39.570;2.652;2022-10-16T17:34:06;24.24;81.71
68450;SHT30;55434;39.570;2.652;2022-10-16T17:36:34;24.24;81.76
68450;SHT30;55434;39.570;2.652;2022-10-16T17:39:01;24.20;81.88
68450;SHT30;55434;39.570;2.652;2022-10-16T17:41:29;24.21;81.40
68450;SHT30;55434;39.570;2.652;2022-10-16T17:43:55;24.18;81.58
68450;SHT30;55434;39.570;2.652;2022-10-16T17:46:22;24.18;80.83
68450;SHT30;55434;39.570;2.652;2022-10-16T17:48:52;24.20;80.74
68450;SHT30;55434;39.570;2.652;2022-10-16T17:51:27;24.20;80.93
68450;SHT30;55434;39.570;2.652;2022-10-16T17:53:55;24.18;80.85
68450;SHT30;55434;39.570;2.652;2022-10-16T17:56:22;24.16;80.91
68450;SHT30;55434;39.570;2.652;2022-10-16T17:58:50;24.06;81.32
68450;SHT30;55434;39.570;2.652;2022-10-16T18:01:19;24.01;81.64
68450;SHT30;55434;39.570;2.652;2022-10-16T18:03:50;23.96;82.01
68450;SHT30;55434;39.570;2.652;2022-10-16T18:06:20;23.89;82.18